x

Scilly St Marys (03803) Weather Station

2:00pm - Mon 23rd Oct 2017 All times are BST. 1 hours from GMT.

  • Wind
    14mph
  • Air Temp 57°f
  • Sea Pressure 1017mb
  • Scilly St Marys
  • Scilly St Marys

More Historic Weather Station data

Upgrade to MSW Pro to gain access to the past 30 days of data for over 8000 Wavebouys and Weather Stations around the globe.

Join

Comparision Forecast

View Surf forecast
   
Mon 10/23 2:00pm 14
mph
1017mb 57f
1:00pm 14
mph
1017mb 57f
12:00pm 15
mph
1017mb 57f
11:00am 18
mph
1017mb 57f
10:00am 17
mph
1016mb 57f
9:00am 22 33 mph 1016mb 57f
8:00am 24 33 mph 1016mb 57f
7:00am 25 36 mph 1016mb 57f
6:00am 26 36 mph 1016mb 57f
5:00am 26 36 mph 1016mb 57f
4:00am 28 37 mph 1016mb 57f
3:00am 32 38 mph 1017mb 55f
2:00am 30 36 mph 1017mb 55f
1:00am 24 37 mph 1019mb 55f
12:00am 22
mph
1019mb 55f
Sun 10/22 11:00pm 21
mph
1020mb 55f
10:00pm 19
mph
1020mb 55f
9:00pm 17
mph
1020mb 55f
8:00pm 19
mph
1021mb 55f
7:00pm 21 29 mph 1021mb 55f
6:00pm 19
mph
1021mb 55f
5:00pm 18
mph
1021mb 55f
4:00pm 17
mph
1021mb 55f
3:00pm 18 29 mph 1022mb 54f
2:00pm 19
mph
1022mb 55f
1:00pm 18 30 mph 1022mb 54f
12:00pm 21 32 mph 1022mb 54f
11:00am 21 33 mph 1021mb 54f
10:00am 18 30 mph 1021mb 54f
9:00am 21 32 mph 1021mb 52f
8:00am 24 37 mph 1020mb 52f
7:00am 26 40 mph 1020mb 52f
6:00am 24 40 mph 1020mb 52f
5:00am 29 40 mph 1019mb 52f
4:00am 30 39 mph 1018mb 52f
3:00am 25 40 mph 1018mb 50f
2:00am 26 38 mph 1017mb 52f
1:00am 31 43 mph 1017mb 52f
12:00am 31 48 mph 1016mb 52f
Sat 10/21 11:00pm 31 48 mph 1015mb 52f
10:00pm 33 48 mph 1014mb 52f
9:00pm 32 51 mph 1013mb 54f
8:00pm 33 51 mph 1012mb 52f
7:00pm 36 54 mph 1011mb 52f
6:00pm 32 56 mph 1010mb 52f
5:00pm 37 57 mph 1009mb 54f
4:00pm 39 61 mph 1008mb 54f
3:00pm 39 57 mph 1006mb 55f
2:00pm 43 68 mph 1006mb 55f
1:00pm 38 61 mph 1005mb 55f
12:00pm 40 60 mph 1004mb 55f
11:00am 40 59 mph 1003mb 55f
10:00am 41 57 mph 1002mb 54f
9:00am 44 62 mph 1001mb 54f
8:00am 40 59 mph 1000mb 54f
7:00am 38 61 mph 999mb 54f
6:00am 43 63 mph 998mb 54f
5:00am 44 61 mph 998mb 55f
4:00am 41 59 mph 997mb 55f
3:00am 44 63 mph 998mb 55f
2:00am 38 56 mph 998mb 55f
1:00am 40 55 mph 998mb 57f
12:00am 34 48 mph 998mb 57f
Fri 10/20 11:00pm 30 44 mph 998mb 57f
10:00pm 28 39 mph 998mb 57f
9:00pm 30 34 mph 998mb 57f
8:00pm 24 31 mph 999mb 55f
7:00pm 25 48 mph 999mb 54f
6:00pm 37 48 mph 998mb 57f
5:00pm 34 46 mph 1000mb 57f
4:00pm 36 46 mph 1001mb 57f
3:00pm 32 41 mph 1003mb 57f
2:00pm 31 37 mph 1004mb 57f
1:00pm 25 32 mph 1006mb 57f
12:00pm 24 30 mph 1007mb 55f
11:00am 21
mph
1008mb 55f
10:00am 17
mph
1008mb 55f
9:00am 13
mph
1008mb 54f
8:00am 11
mph
1008mb 52f
7:00am 13
mph
1008mb 54f
6:00am 14
mph
1007mb 52f
5:00am 18 30 mph 1007mb 52f
4:00am 21 34 mph 1007mb 52f
3:00am 25 34 mph 1006mb 54f
2:00am 24 40 mph 1005mb 54f
1:00am 26 39 mph 1003mb 54f
12:00am 30 45 mph 1002mb 54f
Thu 10/19 11:00pm 31 47 mph 1001mb 54f
10:00pm 32 49 mph 1000mb 54f
9:00pm 34 52 mph 998mb 54f
8:00pm 33 53 mph 996mb 54f
7:00pm 39 57 mph 995mb 52f
6:00pm 38 54 mph 994mb 52f
5:00pm 31 49 mph 993mb 54f
4:00pm 38 53 mph 993mb 55f
3:00pm 34 52 mph 992mb 57f